sensor_id;sensor_type;location;lat;lon;timestamp;P1;durP1;ratioP1;P2;durP2;ratioP2
27666;SDS011;15074;50.940;5.282;2022-10-19T00:00:44;9.65;;;6.50;;
27666;SDS011;15074;50.940;5.282;2022-10-19T00:03:10;12.57;;;8.05;;
27666;SDS011;15074;50.940;5.282;2022-10-19T00:05:36;10.57;;;8.35;;
27666;SDS011;15074;50.940;5.282;2022-10-19T00:08:01;12.90;;;7.15;;
27666;SDS011;15074;50.940;5.282;2022-10-19T00:10:27;13.90;;;6.10;;
27666;SDS011;15074;50.940;5.282;2022-10-19T00:12:53;12.68;;;6.35;;
27666;SDS011;15074;50.940;5.282;2022-10-19T00:15:19;13.18;;;6.45;;
27666;SDS011;15074;50.940;5.282;2022-10-19T00:17:44;11.57;;;6.57;;
27666;SDS011;15074;50.940;5.282;2022-10-19T00:20:10;13.23;;;6.88;;
27666;SDS011;15074;50.940;5.282;2022-10-19T00:22:36;10.30;;;6.18;;
27666;SDS011;15074;50.940;5.282;2022-10-19T00:25:02;14.05;;;6.75;;
27666;SDS011;15074;50.940;5.282;2022-10-19T00:27:28;14.00;;;6.88;;
27666;SDS011;15074;50.940;5.282;2022-10-19T00:29:54;9.15;;;6.28;;
27666;SDS011;15074;50.940;5.282;2022-10-19T00:32:20;12.95;;;6.85;;
27666;SDS011;15074;50.940;5.282;2022-10-19T00:34:46;7.60;;;6.82;;
27666;SDS011;15074;50.940;5.282;2022-10-19T00:37:11;12.63;;;6.97;;
27666;SDS011;15074;50.940;5.282;2022-10-19T00:39:37;9.40;;;6.57;;
27666;SDS011;15074;50.940;5.282;2022-10-19T00:42:03;13.98;;;6.55;;
27666;SDS011;15074;50.940;5.282;2022-10-19T00:46:59;9.07;;;6.55;;
27666;SDS011;15074;50.940;5.282;2022-10-19T00:49:29;12.95;;;6.45;;
27666;SDS011;15074;50.940;5.282;2022-10-19T00:52:03;14.68;;;6.85;;
27666;SDS011;15074;50.940;5.282;2022-10-19T00:54:32;11.30;;;7.03;;
27666;SDS011;15074;50.940;5.282;2022-10-19T00:57:00;11.88;;;6.05;;
27666;SDS011;15074;50.940;5.282;2022-10-19T00:59:28;12.60;;;6.95;;
27666;SDS011;15074;50.940;5.282;2022-10-19T01:01:56;13.68;;;6.45;;
27666;SDS011;15074;50.940;5.282;2022-10-19T01:04:23;14.27;;;7.13;;
27666;SDS011;15074;50.940;5.282;2022-10-19T01:06:51;17.48;;;7.40;;
27666;SDS011;15074;50.940;5.282;2022-10-19T01:09:17;8.48;;;6.93;;
27666;SDS011;15074;50.940;5.282;2022-10-19T01:31:24;25.50;;;10.25;;
27666;SDS011;15074;50.940;5.282;2022-10-19T01:34:15;14.52;;;9.25;;
27666;SDS011;15074;50.940;5.282;2022-10-19T01:36:54;9.57;;;7.35;;
27666;SDS011;15074;50.940;5.282;2022-10-19T01:44:30;17.50;;;8.27;;
27666;SDS011;15074;50.940;5.282;2022-10-19T01:47:04;15.75;;;8.07;;
27666;SDS011;15074;50.940;5.282;2022-10-19T01:49:43;14.18;;;8.55;;
27666;SDS011;15074;50.940;5.282;2022-10-19T01:52:19;13.38;;;8.40;;
27666;SDS011;15074;50.940;5.282;2022-10-19T01:54:48;12.85;;;7.90;;
27666;SDS011;15074;50.940;5.282;2022-10-19T01:57:18;12.38;;;8.93;;
27666;SDS011;15074;50.940;5.282;2022-10-19T01:59:48;15.75;;;9.82;;
27666;SDS011;15074;50.940;5.282;2022-10-19T02:02:17;15.57;;;9.30;;
27666;SDS011;15074;50.940;5.282;2022-10-19T02:04:43;12.38;;;8.52;;
27666;SDS011;15074;50.940;5.282;2022-10-19T02:07:11;13.20;;;8.43;;
27666;SDS011;15074;50.940;5.282;2022-10-19T02:09:36;11.82;;;8.35;;
27666;SDS011;15074;50.940;5.282;2022-10-19T02:12:05;19.85;;;8.52;;
27666;SDS011;15074;50.940;5.282;2022-10-19T02:14:36;14.43;;;9.57;;
27666;SDS011;15074;50.940;5.282;2022-10-19T02:17:07;13.68;;;9.40;;
27666;SDS011;15074;50.940;5.282;2022-10-19T02:19:36;24.48;;;9.02;;
27666;SDS011;15074;50.940;5.282;2022-10-19T02:22:02;10.18;;;9.00;;
27666;SDS011;15074;50.940;5.282;2022-10-19T02:24:28;14.85;;;8.80;;
27666;SDS011;15074;50.940;5.282;2022-10-19T02:26:53;20.92;;;9.43;;
27666;SDS011;15074;50.940;5.282;2022-10-19T02:29:20;18.52;;;9.43;;
27666;SDS011;15074;50.940;5.282;2022-10-19T02:31:46;21.55;;;9.93;;
27666;SDS011;15074;50.940;5.282;2022-10-19T02:34:12;17.17;;;10.70;;
27666;SDS011;15074;50.940;5.282;2022-10-19T02:36:38;16.60;;;10.32;;
27666;SDS011;15074;50.940;5.282;2022-10-19T02:39:05;14.20;;;10.13;;
27666;SDS011;15074;50.940;5.282;2022-10-19T02:44:12;19.35;;;10.52;;
27666;SDS011;15074;50.940;5.282;2022-10-19T02:46:44;19.20;;;9.73;;
27666;SDS011;15074;50.940;5.282;2022-10-19T02:49:16;14.10;;;10.35;;
27666;SDS011;15074;50.940;5.282;2022-10-19T02:52:01;26.13;;;11.02;;
27666;SDS011;15074;50.940;5.282;2022-10-19T02:54:29;18.80;;;10.25;;
27666;SDS011;15074;50.940;5.282;2022-10-19T02:56:55;18.80;;;10.25;;
27666;SDS011;15074;50.940;5.282;2022-10-19T02:59:21;14.88;;;9.80;;
27666;SDS011;15074;50.940;5.282;2022-10-19T03:01:47;18.52;;;10.43;;
27666;SDS011;15074;50.940;5.282;2022-10-19T03:04:13;26.75;;;11.65;;
27666;SDS011;15074;50.940;5.282;2022-10-19T03:06:39;22.65;;;12.57;;
27666;SDS011;15074;50.940;5.282;2022-10-19T03:09:04;18.48;;;13.27;;
27666;SDS011;15074;50.940;5.282;2022-10-19T03:11:32;25.85;;;14.57;;
27666;SDS011;15074;50.940;5.282;2022-10-19T03:13:58;27.05;;;14.57;;
27666;SDS011;15074;50.940;5.282;2022-10-19T03:16:23;27.73;;;14.10;;
27666;SDS011;15074;50.940;5.282;2022-10-19T03:18:49;22.33;;;13.95;;
27666;SDS011;15074;50.940;5.282;2022-10-19T03:21:15;26.02;;;13.20;;
27666;SDS011;15074;50.940;5.282;2022-10-19T03:23:41;18.92;;;12.82;;
27666;SDS011;15074;50.940;5.282;2022-10-19T03:26:07;20.58;;;12.32;;
27666;SDS011;15074;50.940;5.282;2022-10-19T03:28:35;24.05;;;11.20;;
27666;SDS011;15074;50.940;5.282;2022-10-19T03:31:01;26.20;;;12.40;;
27666;SDS011;15074;50.940;5.282;2022-10-19T03:33:26;18.45;;;12.32;;
27666;SDS011;15074;50.940;5.282;2022-10-19T03:36:11;17.20;;;12.23;;
27666;SDS011;15074;50.940;5.282;2022-10-19T03:38:40;44.63;;;14.43;;
27666;SDS011;15074;50.940;5.282;2022-10-19T03:41:06;21.42;;;13.18;;
27666;SDS011;15074;50.940;5.282;2022-10-19T03:43:32;34.65;;;12.48;;
27666;SDS011;15074;50.940;5.282;2022-10-19T03:45:58;19.98;;;12.23;;
27666;SDS011;15074;50.940;5.282;2022-10-19T03:48:24;20.42;;;12.32;;
27666;SDS011;15074;50.940;5.282;2022-10-19T03:50:59;31.30;;;13.20;;
27666;SDS011;15074;50.940;5.282;2022-10-19T03:53:35;21.75;;;12.77;;
27666;SDS011;15074;50.940;5.282;2022-10-19T03:58:32;20.33;;;11.70;;
27666;SDS011;15074;50.940;5.282;2022-10-19T04:01:00;18.45;;;11.80;;
27666;SDS011;15074;50.940;5.282;2022-10-19T04:03:26;16.58;;;12.73;;
27666;SDS011;15074;50.940;5.282;2022-10-19T04:05:51;18.23;;;12.27;;
27666;SDS011;15074;50.940;5.282;2022-10-19T04:08:24;35.88;;;12.32;;
27666;SDS011;15074;50.940;5.282;2022-10-19T04:10:50;15.85;;;11.93;;
27666;SDS011;15074;50.940;5.282;2022-10-19T04:13:15;21.83;;;12.65;;
27666;SDS011;15074;50.940;5.282;2022-10-19T04:15:41;19.25;;;12.32;;
27666;SDS011;15074;50.940;5.282;2022-10-19T04:18:07;23.35;;;13.32;;
27666;SDS011;15074;50.940;5.282;2022-10-19T04:20:32;24.27;;;11.95;;
27666;SDS011;15074;50.940;5.282;2022-10-19T04:22:58;18.15;;;11.82;;
27666;SDS011;15074;50.940;5.282;2022-10-19T04:25:23;26.35;;;12.50;;
27666;SDS011;15074;50.940;5.282;2022-10-19T04:27:49;25.80;;;12.77;;
27666;SDS011;15074;50.940;5.282;2022-10-19T04:30:15;32.55;;;12.70;;
27666;SDS011;15074;50.940;5.282;2022-10-19T04:32:40;21.00;;;12.40;;
27666;SDS011;15074;50.940;5.282;2022-10-19T04:35:06;19.08;;;12.00;;
27666;SDS011;15074;50.940;5.282;2022-10-19T04:37:32;23.33;;;13.23;;
27666;SDS011;15074;50.940;5.282;2022-10-19T04:39:57;24.17;;;12.75;;
27666;SDS011;15074;50.940;5.282;2022-10-19T04:42:23;19.08;;;12.40;;
27666;SDS011;15074;50.940;5.282;2022-10-19T04:44:48;14.38;;;12.20;;
27666;SDS011;15074;50.940;5.282;2022-10-19T04:47:14;22.27;;;12.25;;
27666;SDS011;15074;50.940;5.282;2022-10-19T04:49:40;20.38;;;14.13;;
27666;SDS011;15074;50.940;5.282;2022-10-19T04:52:05;21.67;;;13.10;;
27666;SDS011;15074;50.940;5.282;2022-10-19T04:54:31;21.27;;;13.10;;
27666;SDS011;15074;50.940;5.282;2022-10-19T04:56:57;25.08;;;13.90;;
27666;SDS011;15074;50.940;5.282;2022-10-19T04:59:22;20.63;;;13.15;;
27666;SDS011;15074;50.940;5.282;2022-10-19T05:01:48;21.52;;;13.40;;
27666;SDS011;15074;50.940;5.282;2022-10-19T05:04:14;19.45;;;12.75;;
27666;SDS011;15074;50.940;5.282;2022-10-19T05:06:39;23.10;;;13.85;;
27666;SDS011;15074;50.940;5.282;2022-10-19T05:09:05;23.52;;;13.63;;
27666;SDS011;15074;50.940;5.282;2022-10-19T05:11:30;26.90;;;13.50;;
27666;SDS011;15074;50.940;5.282;2022-10-19T05:13:56;22.58;;;15.02;;
27666;SDS011;15074;50.940;5.282;2022-10-19T05:16:22;22.17;;;13.23;;
27666;SDS011;15074;50.940;5.282;2022-10-19T05:18:49;31.00;;;14.43;;
27666;SDS011;15074;50.940;5.282;2022-10-19T05:21:16;21.70;;;14.98;;
27666;SDS011;15074;50.940;5.282;2022-10-19T05:23:43;26.27;;;15.27;;
27666;SDS011;15074;50.940;5.282;2022-10-19T05:26:10;29.92;;;14.65;;
27666;SDS011;15074;50.940;5.282;2022-10-19T05:28:37;28.90;;;14.98;;
27666;SDS011;15074;50.940;5.282;2022-10-19T05:31:25;19.25;;;15.07;;
27666;SDS011;15074;50.940;5.282;2022-10-19T05:33:51;26.40;;;15.83;;
27666;SDS011;15074;50.940;5.282;2022-10-19T05:36:21;27.02;;;14.93;;
27666;SDS011;15074;50.940;5.282;2022-10-19T05:38:51;25.90;;;15.88;;
27666;SDS011;15074;50.940;5.282;2022-10-19T05:41:22;27.85;;;16.50;;
27666;SDS011;15074;50.940;5.282;2022-10-19T05:43:56;24.63;;;16.00;;
27666;SDS011;15074;50.940;5.282;2022-10-19T05:46:24;36.03;;;16.33;;
27666;SDS011;15074;50.940;5.282;2022-10-19T05:48:51;21.75;;;15.95;;
27666;SDS011;15074;50.940;5.282;2022-10-19T05:51:17;24.20;;;16.40;;
27666;SDS011;15074;50.940;5.282;2022-10-19T05:53:44;27.40;;;17.60;;
27666;SDS011;15074;50.940;5.282;2022-10-19T05:56:17;27.88;;;17.60;;
27666;SDS011;15074;50.940;5.282;2022-10-19T05:58:44;27.52;;;17.02;;
27666;SDS011;15074;50.940;5.282;2022-10-19T06:01:11;32.17;;;18.35;;
27666;SDS011;15074;50.940;5.282;2022-10-19T06:03:37;31.98;;;18.23;;
27666;SDS011;15074;50.940;5.282;2022-10-19T06:06:04;29.73;;;17.77;;
27666;SDS011;15074;50.940;5.282;2022-10-19T06:08:31;30.00;;;18.27;;
27666;SDS011;15074;50.940;5.282;2022-10-19T06:11:05;34.58;;;20.08;;
27666;SDS011;15074;50.940;5.282;2022-10-19T06:16:02;35.15;;;19.08;;
27666;SDS011;15074;50.940;5.282;2022-10-19T06:18:28;37.95;;;20.30;;
27666;SDS011;15074;50.940;5.282;2022-10-19T06:20:53;40.20;;;19.77;;
27666;SDS011;15074;50.940;5.282;2022-10-19T06:23:19;33.75;;;20.00;;
27666;SDS011;15074;50.940;5.282;2022-10-19T06:25:45;41.33;;;19.63;;
27666;SDS011;15074;50.940;5.282;2022-10-19T06:28:11;29.45;;;20.17;;
27666;SDS011;15074;50.940;5.282;2022-10-19T06:30:37;31.30;;;18.33;;
27666;SDS011;15074;50.940;5.282;2022-10-19T06:33:04;39.67;;;19.60;;
27666;SDS011;15074;50.940;5.282;2022-10-19T06:35:30;29.80;;;16.95;;
27666;SDS011;15074;50.940;5.282;2022-10-19T06:37:55;22.30;;;16.17;;
27666;SDS011;15074;50.940;5.282;2022-10-19T06:40:22;23.85;;;16.30;;
27666;SDS011;15074;50.940;5.282;2022-10-19T06:42:48;24.13;;;14.73;;
27666;SDS011;15074;50.940;5.282;2022-10-19T06:45:13;18.27;;;13.70;;
27666;SDS011;15074;50.940;5.282;2022-10-19T06:47:39;22.02;;;13.48;;
27666;SDS011;15074;50.940;5.282;2022-10-19T06:50:05;15.90;;;13.18;;
27666;SDS011;15074;50.940;5.282;2022-10-19T06:52:31;26.38;;;13.73;;
27666;SDS011;15074;50.940;5.282;2022-10-19T06:55:00;21.17;;;14.13;;
27666;SDS011;15074;50.940;5.282;2022-10-19T06:57:26;24.08;;;13.68;;
27666;SDS011;15074;50.940;5.282;2022-10-19T06:59:52;23.70;;;14.68;;
27666;SDS011;15074;50.940;5.282;2022-10-19T07:02:18;20.75;;;14.60;;
27666;SDS011;15074;50.940;5.282;2022-10-19T07:04:44;16.63;;;13.88;;
27666;SDS011;15074;50.940;5.282;2022-10-19T07:07:10;23.60;;;14.55;;
27666;SDS011;15074;50.940;5.282;2022-10-19T07:09:36;19.92;;;13.90;;
27666;SDS011;15074;50.940;5.282;2022-10-19T07:12:01;18.17;;;14.15;;
27666;SDS011;15074;50.940;5.282;2022-10-19T07:14:27;18.70;;;14.40;;
27666;SDS011;15074;50.940;5.282;2022-10-19T07:16:53;15.63;;;13.85;;
27666;SDS011;15074;50.940;5.282;2022-10-19T07:19:20;20.08;;;14.18;;
27666;SDS011;15074;50.940;5.282;2022-10-19T07:21:49;24.48;;;14.10;;
27666;SDS011;15074;50.940;5.282;2022-10-19T07:24:15;13.55;;;10.98;;
27666;SDS011;15074;50.940;5.282;2022-10-19T07:26:41;15.15;;;12.02;;
27666;SDS011;15074;50.940;5.282;2022-10-19T07:29:07;12.00;;;10.65;;
27666;SDS011;15074;50.940;5.282;2022-10-19T07:31:32;16.60;;;9.07;;
27666;SDS011;15074;50.940;5.282;2022-10-19T07:33:59;9.52;;;8.60;;
27666;SDS011;15074;50.940;5.282;2022-10-19T07:36:28;9.00;;;7.03;;
27666;SDS011;15074;50.940;5.282;2022-10-19T07:38:54;10.30;;;6.88;;
27666;SDS011;15074;50.940;5.282;2022-10-19T07:41:21;11.82;;;6.95;;
27666;SDS011;15074;50.940;5.282;2022-10-19T07:43:48;10.25;;;6.65;;
27666;SDS011;15074;50.940;5.282;2022-10-19T07:46:15;10.18;;;5.65;;
27666;SDS011;15074;50.940;5.282;2022-10-19T07:48:43;10.73;;;6.03;;
27666;SDS011;15074;50.940;5.282;2022-10-19T07:51:10;11.63;;;6.78;;
27666;SDS011;15074;50.940;5.282;2022-10-19T07:53:37;8.93;;;6.00;;
27666;SDS011;15074;50.940;5.282;2022-10-19T07:56:07;8.73;;;5.38;;
27666;SDS011;15074;50.940;5.282;2022-10-19T07:58:35;8.35;;;5.68;;
27666;SDS011;15074;50.940;5.282;2022-10-19T08:01:11;6.68;;;4.68;;
27666;SDS011;15074;50.940;5.282;2022-10-19T08:03:38;10.23;;;5.57;;
27666;SDS011;15074;50.940;5.282;2022-10-19T08:06:05;8.45;;;5.80;;
27666;SDS011;15074;50.940;5.282;2022-10-19T08:08:32;8.43;;;5.47;;
27666;SDS011;15074;50.940;5.282;2022-10-19T08:11:09;8.50;;;5.43;;
27666;SDS011;15074;50.940;5.282;2022-10-19T08:13:37;6.32;;;5.40;;
27666;SDS011;15074;50.940;5.282;2022-10-19T08:16:03;7.18;;;5.28;;
27666;SDS011;15074;50.940;5.282;2022-10-19T08:18:29;8.90;;;5.68;;
27666;SDS011;15074;50.940;5.282;2022-10-19T08:20:55;7.38;;;5.40;;
27666;SDS011;15074;50.940;5.282;2022-10-19T08:23:21;7.50;;;6.20;;
27666;SDS011;15074;50.940;5.282;2022-10-19T08:25:47;10.88;;;5.57;;
27666;SDS011;15074;50.940;5.282;2022-10-19T08:28:13;8.43;;;5.90;;
27666;SDS011;15074;50.940;5.282;2022-10-19T08:30:39;13.07;;;7.00;;
27666;SDS011;15074;50.940;5.282;2022-10-19T08:33:04;11.18;;;5.88;;
27666;SDS011;15074;50.940;5.282;2022-10-19T08:35:32;7.28;;;5.82;;
27666;SDS011;15074;50.940;5.282;2022-10-19T08:37:58;7.88;;;5.95;;
27666;SDS011;15074;50.940;5.282;2022-10-19T08:40:26;6.25;;;5.03;;
27666;SDS011;15074;50.940;5.282;2022-10-19T08:45:48;5.90;;;5.25;;
27666;SDS011;15074;50.940;5.282;2022-10-19T08:48:28;6.07;;;4.60;;
27666;SDS011;15074;50.940;5.282;2022-10-19T08:50:57;7.75;;;4.82;;
27666;SDS011;15074;50.940;5.282;2022-10-19T08:53:39;7.60;;;4.70;;
27666;SDS011;15074;50.940;5.282;2022-10-19T08:56:25;5.35;;;4.03;;
27666;SDS011;15074;50.940;5.282;2022-10-19T08:59:20;6.68;;;4.68;;
27666;SDS011;15074;50.940;5.282;2022-10-19T09:04:59;8.05;;;4.13;;
27666;SDS011;15074;50.940;5.282;2022-10-19T09:07:29;9.70;;;4.43;;
27666;SDS011;15074;50.940;5.282;2022-10-19T09:10:03;9.45;;;5.00;;
27666;SDS011;15074;50.940;5.282;2022-10-19T09:15:44;8.50;;;4.10;;
27666;SDS011;15074;50.940;5.282;2022-10-19T09:18:22;9.68;;;4.43;;
27666;SDS011;15074;50.940;5.282;2022-10-19T09:23:21;8.55;;;3.65;;
27666;SDS011;15074;50.940;5.282;2022-10-19T09:26:00;11.25;;;3.90;;
27666;SDS011;15074;50.940;5.282;2022-10-19T09:28:42;5.97;;;4.05;;
27666;SDS011;15074;50.940;5.282;2022-10-19T09:31:14;8.55;;;4.35;;
27666;SDS011;15074;50.940;5.282;2022-10-19T09:34:11;8.13;;;4.80;;
27666;SDS011;15074;50.940;5.282;2022-10-19T09:36:41;11.27;;;4.40;;
27666;SDS011;15074;50.940;5.282;2022-10-19T09:39:11;8.80;;;4.18;;
27666;SDS011;15074;50.940;5.282;2022-10-19T09:41:44;8.40;;;4.85;;
27666;SDS011;15074;50.940;5.282;2022-10-19T09:44:14;7.75;;;5.18;;
27666;SDS011;15074;50.940;5.282;2022-10-19T09:47:03;9.35;;;4.97;;
27666;SDS011;15074;50.940;5.282;2022-10-19T09:49:45;10.02;;;5.57;;
27666;SDS011;15074;50.940;5.282;2022-10-19T09:52:55;9.05;;;5.53;;
27666;SDS011;15074;50.940;5.282;2022-10-19T09:57:41;7.63;;;5.80;;
27666;SDS011;15074;50.940;5.282;2022-10-19T10:00:53;7.35;;;4.82;;
27666;SDS011;15074;50.940;5.282;2022-10-19T10:03:02;11.77;;;5.70;;
27666;SDS011;15074;50.940;5.282;2022-10-19T10:05:34;6.07;;;5.03;;
27666;SDS011;15074;50.940;5.282;2022-10-19T10:08:02;9.68;;;5.15;;
27666;SDS011;15074;50.940;5.282;2022-10-19T10:10:30;14.38;;;6.20;;
27666;SDS011;15074;50.940;5.282;2022-10-19T10:13:02;10.63;;;5.68;;
27666;SDS011;15074;50.940;5.282;2022-10-19T10:15:48;7.45;;;5.25;;
27666;SDS011;15074;50.940;5.282;2022-10-19T10:18:18;8.15;;;4.68;;
27666;SDS011;15074;50.940;5.282;2022-10-19T10:23:22;8.45;;;6.22;;
27666;SDS011;15074;50.940;5.282;2022-10-19T10:25:53;9.18;;;5.90;;
27666;SDS011;15074;50.940;5.282;2022-10-19T10:28:21;9.60;;;6.60;;
27666;SDS011;15074;50.940;5.282;2022-10-19T10:30:52;8.38;;;5.47;;
27666;SDS011;15074;50.940;5.282;2022-10-19T10:33:30;6.63;;;5.35;;
27666;SDS011;15074;50.940;5.282;2022-10-19T10:36:06;9.98;;;5.15;;
27666;SDS011;15074;50.940;5.282;2022-10-19T10:38:59;8.18;;;5.25;;
27666;SDS011;15074;50.940;5.282;2022-10-19T10:41:29;8.20;;;4.97;;
27666;SDS011;15074;50.940;5.282;2022-10-19T10:44:01;6.70;;;5.18;;
27666;SDS011;15074;50.940;5.282;2022-10-19T10:46:36;6.20;;;4.45;;
27666;SDS011;15074;50.940;5.282;2022-10-19T10:49:16;8.43;;;4.63;;
27666;SDS011;15074;50.940;5.282;2022-10-19T10:51:56;6.15;;;3.83;;
27666;SDS011;15074;50.940;5.282;2022-10-19T10:54:25;8.02;;;4.57;;
27666;SDS011;15074;50.940;5.282;2022-10-19T11:02:22;10.82;;;5.10;;
27666;SDS011;15074;50.940;5.282;2022-10-19T11:07:43;7.30;;;4.82;;
27666;SDS011;15074;50.940;5.282;2022-10-19T11:10:34;8.82;;;5.00;;
27666;SDS011;15074;50.940;5.282;2022-10-19T11:15:45;6.68;;;5.10;;
27666;SDS011;15074;50.940;5.282;2022-10-19T11:30:25;6.32;;;5.30;;
27666;SDS011;15074;50.940;5.282;2022-10-19T11:32:44;5.20;;;4.45;;
27666;SDS011;15074;50.940;5.282;2022-10-19T11:50:52;8.57;;;5.88;;
27666;SDS011;15074;50.940;5.282;2022-10-19T11:53:30;7.03;;;5.60;;
27666;SDS011;15074;50.940;5.282;2022-10-19T11:56:25;7.75;;;5.10;;
27666;SDS011;15074;50.940;5.282;2022-10-19T12:04:59;7.35;;;5.65;;
27666;SDS011;15074;50.940;5.282;2022-10-19T12:13:17;9.55;;;7.63;;
27666;SDS011;15074;50.940;5.282;2022-10-19T12:15:48;10.13;;;6.68;;
27666;SDS011;15074;50.940;5.282;2022-10-19T12:23:26;8.77;;;7.88;;
27666;SDS011;15074;50.940;5.282;2022-10-19T12:25:58;11.10;;;8.30;;
27666;SDS011;15074;50.940;5.282;2022-10-19T12:28:27;10.10;;;8.85;;
27666;SDS011;15074;50.940;5.282;2022-10-19T12:30:56;9.65;;;8.38;;
27666;SDS011;15074;50.940;5.282;2022-10-19T12:38:35;10.13;;;8.85;;
27666;SDS011;15074;50.940;5.282;2022-10-19T12:41:06;12.18;;;8.30;;
27666;SDS011;15074;50.940;5.282;2022-10-19T12:47:00;12.90;;;10.07;;
27666;SDS011;15074;50.940;5.282;2022-10-19T12:52:38;12.05;;;10.90;;
27666;SDS011;15074;50.940;5.282;2022-10-19T12:57:55;12.73;;;10.73;;
27666;SDS011;15074;50.940;5.282;2022-10-19T13:00:25;11.40;;;10.18;;
27666;SDS011;15074;50.940;5.282;2022-10-19T13:03:03;11.52;;;10.20;;
27666;SDS011;15074;50.940;5.282;2022-10-19T13:05:30;11.70;;;10.50;;
27666;SDS011;15074;50.940;5.282;2022-10-19T13:07:59;12.60;;;11.15;;
27666;SDS011;15074;50.940;5.282;2022-10-19T13:10:27;12.15;;;10.15;;
27666;SDS011;15074;50.940;5.282;2022-10-19T13:12:54;13.35;;;11.00;;
27666;SDS011;15074;50.940;5.282;2022-10-19T13:18:01;12.15;;;9.73;;
27666;SDS011;15074;50.940;5.282;2022-10-19T13:38:34;13.13;;;11.50;;
27666;SDS011;15074;50.940;5.282;2022-10-19T13:41:10;18.83;;;12.45;;
27666;SDS011;15074;50.940;5.282;2022-10-19T13:47:22;25.52;;;11.90;;
27666;SDS011;15074;50.940;5.282;2022-10-19T13:55:16;14.90;;;12.20;;
27666;SDS011;15074;50.940;5.282;2022-10-19T13:58:13;12.88;;;11.43;;
27666;SDS011;15074;50.940;5.282;2022-10-19T14:04:17;13.65;;;11.80;;
27666;SDS011;15074;50.940;5.282;2022-10-19T14:06:37;13.40;;;11.43;;
27666;SDS011;15074;50.940;5.282;2022-10-19T14:09:19;14.60;;;11.00;;
27666;SDS011;15074;50.940;5.282;2022-10-19T14:11:51;12.88;;;11.57;;
27666;SDS011;15074;50.940;5.282;2022-10-19T14:14:20;19.77;;;10.15;;
27666;SDS011;15074;50.940;5.282;2022-10-19T14:16:51;14.15;;;12.25;;
27666;SDS011;15074;50.940;5.282;2022-10-19T14:19:32;15.18;;;13.43;;
27666;SDS011;15074;50.940;5.282;2022-10-19T14:22:19;22.92;;;13.30;;
27666;SDS011;15074;50.940;5.282;2022-10-19T14:25:02;20.27;;;12.70;;
27666;SDS011;15074;50.940;5.282;2022-10-19T14:27:37;15.00;;;12.32;;
27666;SDS011;15074;50.940;5.282;2022-10-19T14:30:03;18.02;;;13.13;;
27666;SDS011;15074;50.940;5.282;2022-10-19T14:32:31;20.13;;;12.52;;
27666;SDS011;15074;50.940;5.282;2022-10-19T14:35:14;18.75;;;12.52;;
27666;SDS011;15074;50.940;5.282;2022-10-19T14:37:48;13.48;;;12.00;;
27666;SDS011;15074;50.940;5.282;2022-10-19T14:40:26;19.10;;;11.35;;
27666;SDS011;15074;50.940;5.282;2022-10-19T14:42:54;12.32;;;11.02;;
27666;SDS011;15074;50.940;5.282;2022-10-19T14:45:25;13.67;;;12.27;;
27666;SDS011;15074;50.940;5.282;2022-10-19T14:50:42;14.48;;;13.07;;
27666;SDS011;15074;50.940;5.282;2022-10-19T15:01:40;20.98;;;12.73;;
27666;SDS011;15074;50.940;5.282;2022-10-19T15:04:18;13.90;;;12.50;;
27666;SDS011;15074;50.940;5.282;2022-10-19T15:06:49;15.82;;;11.60;;
27666;SDS011;15074;50.940;5.282;2022-10-19T15:09:24;17.42;;;13.85;;
27666;SDS011;15074;50.940;5.282;2022-10-19T15:11:52;14.57;;;13.13;;
27666;SDS011;15074;50.940;5.282;2022-10-19T15:14:20;15.02;;;13.50;;
27666;SDS011;15074;50.940;5.282;2022-10-19T15:19:26;18.55;;;12.65;;
27666;SDS011;15074;50.940;5.282;2022-10-19T15:22:17;14.75;;;13.45;;
27666;SDS011;15074;50.940;5.282;2022-10-19T15:27:33;14.63;;;13.23;;
27666;SDS011;15074;50.940;5.282;2022-10-19T15:30:02;14.35;;;12.85;;
27666;SDS011;15074;50.940;5.282;2022-10-19T15:32:44;14.48;;;11.88;;
27666;SDS011;15074;50.940;5.282;2022-10-19T15:35:27;14.15;;;12.68;;
27666;SDS011;15074;50.940;5.282;2022-10-19T15:38:03;17.73;;;13.30;;
27666;SDS011;15074;50.940;5.282;2022-10-19T15:40:39;13.77;;;12.43;;
27666;SDS011;15074;50.940;5.282;2022-10-19T15:45:58;17.27;;;13.73;;
27666;SDS011;15074;50.940;5.282;2022-10-19T15:53:52;14.82;;;12.02;;
27666;SDS011;15074;50.940;5.282;2022-10-19T15:56:23;16.10;;;12.32;;
27666;SDS011;15074;50.940;5.282;2022-10-19T15:58:50;14.20;;;11.68;;
27666;SDS011;15074;50.940;5.282;2022-10-19T16:01:22;15.48;;;11.48;;
27666;SDS011;15074;50.940;5.282;2022-10-19T16:03:50;13.40;;;11.25;;
27666;SDS011;15074;50.940;5.282;2022-10-19T16:06:17;21.30;;;12.40;;
27666;SDS011;15074;50.940;5.282;2022-10-19T16:08:44;12.48;;;11.27;;
27666;SDS011;15074;50.940;5.282;2022-10-19T16:11:17;13.55;;;11.45;;
27666;SDS011;15074;50.940;5.282;2022-10-19T16:13:44;16.38;;;11.30;;
27666;SDS011;15074;50.940;5.282;2022-10-19T16:16:17;12.95;;;10.70;;
27666;SDS011;15074;50.940;5.282;2022-10-19T16:18:51;11.68;;;10.48;;
27666;SDS011;15074;50.940;5.282;2022-10-19T16:21:17;12.07;;;11.00;;
27666;SDS011;15074;50.940;5.282;2022-10-19T16:23:44;16.42;;;10.82;;
27666;SDS011;15074;50.940;5.282;2022-10-19T16:26:10;15.77;;;10.65;;
27666;SDS011;15074;50.940;5.282;2022-10-19T16:28:38;17.98;;;11.00;;
27666;SDS011;15074;50.940;5.282;2022-10-19T16:31:04;12.70;;;10.70;;
27666;SDS011;15074;50.940;5.282;2022-10-19T16:33:36;12.30;;;11.20;;
27666;SDS011;15074;50.940;5.282;2022-10-19T16:36:17;11.68;;;10.57;;
27666;SDS011;15074;50.940;5.282;2022-10-19T16:38:44;17.50;;;10.43;;
27666;SDS011;15074;50.940;5.282;2022-10-19T16:41:11;15.13;;;11.50;;
27666;SDS011;15074;50.940;5.282;2022-10-19T16:43:37;11.88;;;10.35;;
27666;SDS011;15074;50.940;5.282;2022-10-19T16:46:03;17.98;;;10.55;;
27666;SDS011;15074;50.940;5.282;2022-10-19T16:48:29;17.48;;;10.60;;
27666;SDS011;15074;50.940;5.282;2022-10-19T16:53:30;14.18;;;10.15;;
27666;SDS011;15074;50.940;5.282;2022-10-19T16:56:03;13.30;;;11.13;;
27666;SDS011;15074;50.940;5.282;2022-10-19T16:58:31;16.33;;;9.95;;
27666;SDS011;15074;50.940;5.282;2022-10-19T17:00:56;12.32;;;9.57;;
27666;SDS011;15074;50.940;5.282;2022-10-19T17:03:26;16.13;;;9.75;;
27666;SDS011;15074;50.940;5.282;2022-10-19T17:05:52;14.00;;;10.18;;
27666;SDS011;15074;50.940;5.282;2022-10-19T17:08:18;12.88;;;10.00;;
27666;SDS011;15074;50.940;5.282;2022-10-19T17:10:44;13.18;;;10.10;;
27666;SDS011;15074;50.940;5.282;2022-10-19T17:13:11;11.88;;;9.60;;
27666;SDS011;15074;50.940;5.282;2022-10-19T17:15:37;9.23;;;8.18;;
27666;SDS011;15074;50.940;5.282;2022-10-19T17:18:02;9.98;;;8.23;;
27666;SDS011;15074;50.940;5.282;2022-10-19T17:20:28;11.48;;;7.82;;
27666;SDS011;15074;50.940;5.282;2022-10-19T17:22:55;11.05;;;9.63;;
27666;SDS011;15074;50.940;5.282;2022-10-19T17:25:21;8.75;;;7.85;;
27666;SDS011;15074;50.940;5.282;2022-10-19T17:27:50;8.55;;;7.47;;
27666;SDS011;15074;50.940;5.282;2022-10-19T17:30:16;12.10;;;8.23;;
27666;SDS011;15074;50.940;5.282;2022-10-19T17:32:42;14.45;;;7.60;;
27666;SDS011;15074;50.940;5.282;2022-10-19T17:35:08;9.15;;;7.55;;
27666;SDS011;15074;50.940;5.282;2022-10-19T17:37:34;9.02;;;7.82;;
27666;SDS011;15074;50.940;5.282;2022-10-19T17:39:59;8.27;;;7.47;;
27666;SDS011;15074;50.940;5.282;2022-10-19T17:42:25;12.05;;;7.57;;
27666;SDS011;15074;50.940;5.282;2022-10-19T17:44:54;11.68;;;7.63;;
27666;SDS011;15074;50.940;5.282;2022-10-19T17:47:19;11.85;;;7.32;;